• Join FlightAware (Why Join?)
  • Login
  • US Flag 
03:44PM EST


 

Airport Tracker/Info


-or-


 

Live Flight TrackerFlight Track Log ✈ SWA1040 ✈ 04-May-2013 ✈ KALB - KBWI

Flight Track Log - Related Links

Times and Time Zones

All times are in EDT time to prevent confusion due to time zone crossing. See the SWA1040 flight status page for this flight to view local times or setup timezone preferences in your user account.

Time Position Orientation Groundspeed Altitude Reporting Facility
EDT Latitude Longitude Course Direction KTS MPH feet Rate Location/Type
12:31PM 42.8025 -73.8239 341° North 193 222 3,100  Level Boston Center
12:32PM 42.8558 -73.9017 313° West 236 272 5,900 3,420 Climbing Boston Center
12:33PM 42.8939 -74.0044 297° West 264 304 11,100 4,380 Climbing Boston Center
12:34PM 42.8717 -74.1031 253° West 275 316 14,700 3,240 Climbing Boston Center
12:35PM 42.7761 -74.0919 175° South 231 266 17,600 2,400 Climbing Boston Center
12:36PM 42.6911 -74.0503 160° South 258 297 19,600 2,700 Climbing Boston Center
12:37PM 42.5775 -73.9936 160° South 347 399 23,000 3,360 Climbing Boston Center
12:38PM 42.4675 -73.9403 160° South 380 437 26,400 2,460 Climbing Boston Center
12:39PM 42.3600 -73.8900 161° South 396 456 28,000 780 Climbing Boston Center
12:40PM 42.2542 -73.8369 160° South 403 464 28,000  Level Boston Center
12:41PM 42.1422 -73.8008 167° South 408 470 28,000  Level Boston Center
12:42PM 42.0253 -73.8039 181° South 408 470 28,000  Level Boston Center
12:43PM 41.9108 -73.8042 180° South 414 476 28,000  Level Boston Center
12:45PM 41.6600 -73.8003 179° South 436 502 28,000  Level New York Center
12:46PM 41.5497 -73.7953 178° South 423 487 28,000  Level New York Center
12:47PM 41.4331 -73.7983 181° South 417 480 28,000  Level New York Center
12:48PM 41.3186 -73.7986 180° South 417 480 28,000  Level New York Center
12:49PM 41.2019 -73.7989 180° South 417 480 28,000  Level New York Center
12:50PM 41.1064 -73.8717 210° Southwest 393 452 28,000  Level New York Center
12:51PM 41.0383 -73.9953 234° Southwest 393 452 28,000 -120 Level New York Center
12:52PM 40.9664 -74.1125 231° Southwest 398 458 27,800 -540 Descending New York Center
12:53PM 40.9008 -74.2192 231° Southwest 412 474 27,000 -900 Descending New York Center
12:54PM 40.8244 -74.3414 230° Southwest 428 493 26,100 -540 Descending New York Center
12:55PM 40.7497 -74.4664 232° Southwest 433 498 26,000 -60 Descending New York Center
12:56PM 40.6750 -74.5881 231° Southwest 433 498 26,000  Level New York Center
12:57PM 40.6000 -74.7150 232° Southwest 433 498 26,000  Level New York Center
12:58PM 40.5189 -74.8306 227° Southwest 433 498 26,000  Level New York Center
12:59PM 40.4378 -74.9486 228° Southwest 439 505 26,000 -900 Level New York Center
01:00PM 40.3564 -75.0661 228° Southwest 439 505 24,200 -2,040 Descending New York Center
01:01PM 40.2772 -75.1756 227° Southwest 439 505 22,000 -2,220 Descending New York Center
01:02PM 40.2003 -75.2819 227° Southwest 420 483 19,800 -2,040 Descending New York Center
01:03PM 40.1233 -75.3856 226° Southwest 407 468 18,000 -960 Descending New York Center
01:04PM 40.0436 -75.4997 228° Southwest 402 463 18,000  Level New York Center
01:05PM 39.9753 -75.5925 226° Southwest 397 457 18,000  Level New York Center
01:06PM 39.8997 -75.7064 229° Southwest 397 457 18,000 -420 Level New York Center
01:07PM 39.8456 -75.8081 235° Southwest 392 451 17,200 -1,320 Descending New York Center
01:09PM 39.7566 -75.9634 247° West  Level FlightAware Approximate
01:11PM 39.6333 -76.2167 218° Southwest 309 356 11,700  Level Potomac TRACON
01:12PM 39.5833 -76.3000 232° Southwest 305 351 10,700 -1,020 Descending Potomac TRACON
01:14PM 39.4833 -76.4833 235° Southwest 301 346 8,700 -1,020 Descending Potomac TRACON
01:15PM 39.4667 -76.5833 258° West 298 343 7,700 -1,200 Descending Potomac TRACON
01:16PM 39.2797 -76.5537 218° Southwest  Level FlightAware Approximate
01:17PM 39.3833 -76.7667 240° Southwest 286 329 5,100  Level Potomac TRACON
01:18PM 39.3500 -76.8500 243° Southwest 277 319 3,900 -1,080 Descending Potomac TRACON
01:19PM 39.2833 -76.8833 201° Southwest 263 303 3,000 -960 Descending Potomac TRACON
01:20PM 39.2167 -76.8667 169° South 252 290 2,000 -540 Descending Potomac TRACON
01:21PM 39.1833 -76.8333 142° Southeast 186 214 2,000 -360 Level Potomac TRACON
01:22PM 39.1833 -76.7667 90° East 155 178 1,400 -720 Descending Potomac TRACON
01:23PM 39.1833 -76.7333 90° East 124 143 700 -720 Descending Potomac TRACON
01:25PM 39.1667 -76.6667 270° West  Level FlightAware Approximate